Time;durP1;ratioP1;P1;durP2;ratioP2;P2;SDS_P1;SDS_P2;PMS_P1;PMS_P2;Temp;Humidity;BMP_temperature;BMP_pressure;BME280_temperature;BME280_humidity;BME280_pressure;Samples;Min_cycle;Max_cycle;Signal;HPM_P1;HPM_P2
2023/01/21 00:00:44;;;;;;;46.58;36.90;;;0.30;99.90;;;;;;2107641;28;20028;-70
2023/01/21 00:01:44;;;;;;;46.13;36.05;;;0.30;99.90;;;;;;2107068;28;20256;-70
2023/01/21 00:02:45;;;;;;;48.80;37.60;;;0.30;99.90;;;;;;2108214;28;20035;-70
2023/01/21 00:03:46;;;;;;;46.60;37.05;;;0.30;99.90;;;;;;2108375;28;20502;-70
2023/01/21 00:04:46;;;;;;;50.85;37.83;;;0.30;99.90;;;;;;2109421;28;20390;-70
2023/01/21 00:05:47;;;;;;;47.03;38.88;;;0.20;99.90;;;;;;2105876;28;20020;-70
2023/01/21 00:06:48;;;;;;;48.95;38.60;;;0.20;99.90;;;;;;2108915;28;20433;-70
2023/01/21 00:07:48;;;;;;;49.85;36.40;;;0.20;99.90;;;;;;2106817;28;20043;-70
2023/01/21 00:08:49;;;;;;;43.42;36.40;;;0.20;99.90;;;;;;2109448;28;20507;-69
2023/01/21 00:09:49;;;;;;;46.83;38.40;;;0.20;99.90;;;;;;2107473;28;20045;-70
2023/01/21 00:10:50;;;;;;;50.38;38.72;;;0.20;99.90;;;;;;2108061;28;20020;-70
2023/01/21 00:11:50;;;;;;;50.00;38.17;;;0.20;99.90;;;;;;2108109;28;20027;-70
2023/01/21 00:12:51;;;;;;;54.35;40.58;;;0.20;99.90;;;;;;2109390;28;20019;-70
2023/01/21 00:13:51;;;;;;;50.90;38.83;;;0.20;99.90;;;;;;2111577;28;20027;-70
2023/01/21 00:14:52;;;;;;;49.90;38.90;;;0.20;99.90;;;;;;2109109;28;20036;-70
2023/01/21 00:15:53;;;;;;;51.25;39.22;;;0.20;99.90;;;;;;2108075;28;20492;-70
2023/01/21 00:16:54;;;;;;;48.35;37.53;;;0.20;99.90;;;;;;2109439;28;20129;-70
2023/01/21 00:17:54;;;;;;;46.60;37.08;;;0.20;99.90;;;;;;2106425;28;20093;-70
2023/01/21 00:18:55;;;;;;;49.25;38.97;;;0.20;99.90;;;;;;2108525;28;20024;-70
2023/01/21 00:19:56;;;;;;;49.75;37.33;;;0.20;99.90;;;;;;2106823;28;20031;-70
2023/01/21 00:20:56;;;;;;;54.15;39.00;;;0.20;99.90;;;;;;2107112;28;20087;-70
2023/01/21 00:21:57;;;;;;;49.35;37.95;;;0.20;99.90;;;;;;2108175;28;20024;-70
2023/01/21 00:22:57;;;;;;;48.67;38.13;;;0.20;99.90;;;;;;2107770;28;20031;-70
2023/01/21 00:23:58;;;;;;;49.08;37.45;;;0.20;99.90;;;;;;2105523;28;20027;-70
2023/01/21 00:24:58;;;;;;;47.33;37.45;;;0.20;99.90;;;;;;2108071;28;20064;-70
2023/01/21 00:26:00;;;;;;;53.85;39.70;;;0.20;99.90;;;;;;2107082;28;20019;-70
2023/01/21 00:27:01;;;;;;;51.10;39.38;;;0.20;99.90;;;;;;2108839;28;20020;-70
2023/01/21 00:28:01;;;;;;;49.40;38.20;;;0.20;99.90;;;;;;2107970;28;20015;-70
2023/01/21 00:29:02;;;;;;;42.08;34.95;;;0.20;99.90;;;;;;2108617;28;20019;-70
2023/01/21 00:30:04;;;;;;;47.22;37.47;;;0.10;99.90;;;;;;2107110;28;20371;-70
2023/01/21 00:31:06;;;;;;;46.53;36.95;;;0.10;99.90;;;;;;2106553;28;20115;-70
2023/01/21 00:32:07;;;;;;;46.63;36.85;;;0.10;99.90;;;;;;2108310;28;20028;-70
2023/01/21 00:33:07;;;;;;;48.75;36.33;;;0.10;99.90;;;;;;2108331;28;20024;-70
2023/01/21 00:34:09;;;;;;;45.63;36.38;;;0.20;99.90;;;;;;2107365;28;20516;-70
2023/01/21 00:35:10;;;;;;;46.45;36.47;;;0.10;99.90;;;;;;2108078;28;20038;-70
2023/01/21 00:36:12;;;;;;;48.00;36.00;;;0.10;99.90;;;;;;2108409;28;20023;-70
2023/01/21 00:37:13;;;;;;;45.78;36.72;;;0.10;99.90;;;;;;2107587;28;20078;-70
2023/01/21 00:38:13;;;;;;;46.33;35.90;;;0.10;99.90;;;;;;2107283;28;20027;-70
2023/01/21 00:39:14;;;;;;;47.15;35.67;;;0.10;99.90;;;;;;2106141;28;20027;-70
2023/01/21 00:40:15;;;;;;;46.90;36.10;;;0.10;99.90;;;;;;2107616;28;20113;-69
2023/01/21 00:41:16;;;;;;;46.20;35.80;;;0.10;99.90;;;;;;2107680;28;20122;-69
2023/01/21 00:42:16;;;;;;;41.55;32.65;;;0.00;99.90;;;;;;2106108;28;20046;-70
2023/01/21 00:43:17;;;;;;;49.08;36.83;;;0.00;99.90;;;;;;2108693;28;20108;-70
2023/01/21 00:44:18;;;;;;;46.33;35.38;;;0.10;99.90;;;;;;2109485;28;20027;-70
2023/01/21 00:45:18;;;;;;;49.70;36.22;;;0.00;99.90;;;;;;2111389;28;20030;-70
2023/01/21 00:46:19;;;;;;;46.60;35.65;;;0.00;99.90;;;;;;2105203;28;20039;-70
2023/01/21 00:47:20;;;;;;;45.10;36.88;;;0.10;99.90;;;;;;2105133;28;20112;-70
2023/01/21 00:48:20;;;;;;;45.15;33.55;;;0.00;99.90;;;;;;2107289;28;20024;-70
2023/01/21 00:49:21;;;;;;;45.20;36.25;;;0.00;99.90;;;;;;2108251;28;20069;-70
2023/01/21 00:50:21;;;;;;;46.65;36.92;;;0.00;99.90;;;;;;2106792;28;20132;-70
2023/01/21 00:51:22;;;;;;;42.83;35.15;;;0.00;99.90;;;;;;2107550;28;20031;-70
2023/01/21 00:52:23;;;;;;;49.83;36.60;;;0.00;99.90;;;;;;2106551;28;20121;-70
2023/01/21 00:53:23;;;;;;;44.70;34.75;;;0.00;99.90;;;;;;2105387;28;20089;-70
2023/01/21 00:54:24;;;;;;;42.20;32.88;;;0.00;99.90;;;;;;2109446;28;20027;-70
2023/01/21 00:55:25;;;;;;;39.78;31.70;;;0.00;99.90;;;;;;2110021;28;20079;-70
2023/01/21 00:56:25;;;;;;;43.83;34.53;;;0.00;99.90;;;;;;2106526;28;20028;-70
2023/01/21 00:57:26;;;;;;;45.90;35.03;;;0.00;99.90;;;;;;2105994;28;20028;-70
2023/01/21 00:58:26;;;;;;;40.55;33.13;;;-0.10;99.90;;;;;;2108203;28;20510;-70
2023/01/21 00:59:27;;;;;;;44.60;34.92;;;-0.10;99.90;;;;;;2105649;28;20058;-70
2023/01/21 01:00:28;;;;;;;42.38;32.90;;;-0.10;99.90;;;;;;2106518;28;20028;-70
2023/01/21 01:01:33;;;;;;;44.20;35.03;;;-0.10;99.90;;;;;;2109472;28;20021;-70
2023/01/21 01:02:33;;;;;;;44.88;34.35;;;-0.10;99.90;;;;;;2107325;28;20111;-70
2023/01/21 01:03:35;;;;;;;45.50;34.95;;;-0.10;99.90;;;;;;2107063;28;20027;-70
2023/01/21 01:04:35;;;;;;;41.67;33.83;;;-0.10;99.90;;;;;;2107737;28;20081;-69
2023/01/21 01:05:36;;;;;;;46.75;35.65;;;-0.20;99.90;;;;;;2106154;28;20024;-70
2023/01/21 01:06:37;;;;;;;44.75;34.95;;;-0.10;99.90;;;;;;2108883;28;20034;-69
2023/01/21 01:07:40;;;;;;;47.40;36.35;;;-0.20;99.90;;;;;;2108537;28;20024;-70
2023/01/21 01:08:41;;;;;;;37.05;30.48;;;-0.20;99.90;;;;;;2107406;28;20498;-70
2023/01/21 01:09:42;;;;;;;42.70;34.05;;;-0.20;99.90;;;;;;2107005;28;20032;-70
2023/01/21 01:10:42;;;;;;;45.88;36.15;;;-0.20;99.90;;;;;;2107977;28;20021;-70
2023/01/21 01:11:43;;;;;;;44.25;34.30;;;-0.20;99.90;;;;;;2108486;28;20652;-70
2023/01/21 01:12:44;;;;;;;48.17;34.67;;;-0.20;99.90;;;;;;2107221;28;20091;-70
2023/01/21 01:13:44;;;;;;;47.75;35.80;;;-0.20;99.90;;;;;;2107229;28;20031;-70
2023/01/21 01:14:46;;;;;;;45.45;35.28;;;-0.20;99.90;;;;;;2107687;28;20040;-70
2023/01/21 01:15:50;;;;;;;43.88;34.10;;;-0.20;99.90;;;;;;2106752;28;20024;-70
2023/01/21 01:16:51;;;;;;;39.92;30.52;;;-0.20;99.90;;;;;;2108432;28;20042;-69
2023/01/21 01:17:51;;;;;;;46.65;36.92;;;-0.20;99.90;;;;;;2108835;28;20024;-69
2023/01/21 01:18:52;;;;;;;44.95;35.65;;;-0.20;99.90;;;;;;2106355;28;20604;-69
2023/01/21 01:19:52;;;;;;;48.38;36.58;;;-0.30;99.90;;;;;;2104719;28;20016;-69
2023/01/21 01:20:53;;;;;;;44.55;36.10;;;-0.30;99.90;;;;;;2104850;28;20373;-70
2023/01/21 01:21:54;;;;;;;44.70;34.05;;;-0.20;99.90;;;;;;2108321;28;20031;-70
2023/01/21 01:22:54;;;;;;;43.83;33.70;;;-0.30;99.90;;;;;;2109014;28;20380;-70
2023/01/21 01:23:59;;;;;;;48.33;37.55;;;-0.30;99.90;;;;;;2105810;28;20052;-70
2023/01/21 01:25:00;;;;;;;51.03;39.53;;;-0.30;99.90;;;;;;2108573;28;20024;-70
2023/01/21 01:26:03;;;;;;;49.15;38.50;;;-0.30;99.90;;;;;;2107375;28;20031;-70
2023/01/21 01:27:04;;;;;;;46.00;35.75;;;-0.30;99.90;;;;;;2110482;28;20054;-70
2023/01/21 01:28:04;;;;;;;50.40;37.90;;;-0.30;99.90;;;;;;2109035;28;20137;-70
2023/01/21 01:29:05;;;;;;;60.55;42.30;;;-0.30;99.90;;;;;;2108544;28;20587;-69
2023/01/21 01:30:06;;;;;;;53.00;37.92;;;-0.30;99.90;;;;;;2107719;28;20017;-70
2023/01/21 01:31:10;;;;;;;60.75;43.17;;;-0.30;99.90;;;;;;2107850;28;20024;-70
2023/01/21 01:32:11;;;;;;;54.95;40.28;;;-0.30;99.90;;;;;;2108986;28;20028;-70
2023/01/21 01:33:11;;;;;;;58.15;40.88;;;-0.30;99.90;;;;;;2109174;28;20166;-70
2023/01/21 01:34:12;;;;;;;56.10;40.10;;;-0.30;99.90;;;;;;2108846;28;20027;-70
2023/01/21 01:35:12;;;;;;;53.20;39.25;;;-0.40;99.90;;;;;;2107099;28;20162;-70
2023/01/21 01:36:19;;;;;;;49.33;38.72;;;-0.30;99.90;;;;;;2108897;28;20028;-70
2023/01/21 01:37:20;;;;;;;58.63;40.50;;;-0.30;99.90;;;;;;2108287;28;20024;-70
2023/01/21 01:38:21;;;;;;;53.90;37.80;;;-0.30;99.90;;;;;;2106935;28;20020;-70
2023/01/21 01:39:22;;;;;;;51.15;40.28;;;-0.30;99.90;;;;;;2109493;28;20107;-70
2023/01/21 01:40:23;;;;;;;53.08;38.95;;;-0.30;99.90;;;;;;2107287;28;20043;-70
2023/01/21 01:41:26;;;;;;;50.90;39.42;;;-0.30;99.90;;;;;;2109549;28;20031;-70
2023/01/21 01:42:26;;;;;;;49.08;38.45;;;-0.30;99.90;;;;;;2107337;28;20051;-70
2023/01/21 01:43:49;;;;;;;49.67;38.45;;;-0.30;99.90;;;;;;2106442;28;20032;-70
2023/01/21 01:45:02;;;;;;;49.58;38.53;;;-0.30;99.90;;;;;;2107845;28;20103;-70
2023/01/21 01:46:02;;;;;;;52.25;39.83;;;-0.30;99.90;;;;;;2108823;28;20063;-70
2023/01/21 01:47:03;;;;;;;52.83;39.95;;;-0.30;99.90;;;;;;2109559;28;20035;-70
2023/01/21 01:48:05;;;;;;;51.20;37.92;;;-0.30;99.90;;;;;;2102891;28;20051;-70
2023/01/21 01:49:18;;;;;;;50.10;38.92;;;-0.30;99.90;;;;;;2102781;28;20123;-70
2023/01/21 01:50:19;;;;;;;51.83;39.35;;;-0.30;99.90;;;;;;2112844;27;20043;-70
2023/01/21 01:51:26;;;;;;;51.55;38.47;;;-0.30;99.90;;;;;;2112405;27;20089;-70
2023/01/21 01:52:27;;;;;;;49.05;39.22;;;-0.20;99.90;;;;;;2109218;28;20023;-69
2023/01/21 01:53:29;;;;;;;48.33;38.53;;;-0.30;99.90;;;;;;2110158;28;20038;-70
2023/01/21 01:54:38;;;;;;;46.05;36.75;;;-0.30;99.90;;;;;;2108929;28;20086;-70
2023/01/21 01:55:39;;;;;;;51.17;38.88;;;-0.30;99.90;;;;;;2108469;28;20032;-70
2023/01/21 01:56:44;;;;;;;50.72;39.30;;;-0.30;99.90;;;;;;2109110;28;20438;-70
2023/01/21 01:57:49;;;;;;;50.67;38.90;;;-0.30;99.90;;;;;;2108219;28;20045;-70
2023/01/21 01:58:51;;;;;;;53.90;40.78;;;-0.20;99.90;;;;;;2109598;28;20052;-70
2023/01/21 01:59:51;;;;;;;47.05;36.30;;;-0.20;99.90;;;;;;2107807;28;20058;-70
2023/01/21 02:00:52;;;;;;;49.22;38.10;;;-0.20;99.90;;;;;;2109437;28;20019;-70
2023/01/21 02:01:53;;;;;;;49.95;37.22;;;-0.20;99.90;;;;;;2108732;28;20023;-70
2023/01/21 02:04:21;;;;;;;;;;;-0.20;99.90;;;;;;2108811;28;20108;-70
2023/01/21 02:05:21;;;;;;;49.08;37.38;;;-0.30;99.90;;;;;;2106592;28;20559;-70
2023/01/21 02:06:22;;;;;;;46.85;38.03;;;-0.30;99.90;;;;;;2109202;28;20128;-70
2023/01/21 02:07:25;;;;;;;50.90;38.08;;;-0.30;99.90;;;;;;2109591;28;20042;-70
2023/01/21 02:08:27;;;;;;;53.25;40.03;;;-0.30;99.90;;;;;;2109276;28;20501;-70
2023/01/21 02:09:28;;;;;;;50.17;37.33;;;-0.30;99.90;;;;;;2108264;28;20046;-70
2023/01/21 02:10:30;;;;;;;49.70;37.88;;;-0.30;99.90;;;;;;2110129;28;20034;-70
2023/01/21 02:11:31;;;;;;;51.35;38.72;;;-0.30;99.90;;;;;;2110021;28;20735;-70
2023/01/21 02:12:32;;;;;;;48.83;37.15;;;-0.30;99.90;;;;;;2109776;28;20054;-70
2023/01/21 02:13:33;;;;;;;50.60;39.45;;;-0.30;99.90;;;;;;2107615;28;20102;-70
2023/01/21 02:14:41;;;;;;;50.78;38.15;;;-0.20;99.90;;;;;;2107891;28;20054;-70
2023/01/21 02:16:17;;;;;;;50.60;38.92;;;-0.30;99.90;;;;;;2108293;28;20019;-70
2023/01/21 02:17:39;;;;;;;49.40;38.47;;;-0.30;99.90;;;;;;2107251;28;20024;-70
2023/01/21 02:18:54;;;;;;;48.80;36.90;;;-0.30;99.90;;;;;;2106399;28;20016;-70
2023/01/21 02:20:34;;;;;;;49.75;38.40;;;-0.30;99.90;;;;;;2107691;28;20020;-70
2023/01/21 02:21:35;;;;;;;;;;;-0.30;99.90;;;;;;2110559;28;20488;-70
2023/01/21 02:22:51;;;;;;;49.92;40.55;;;-0.40;99.90;;;;;;2100283;28;19912;-70
2023/01/21 02:24:31;;;;;;;47.92;40.20;;;-0.30;99.90;;;;;;2107918;28;20110;-70
2023/01/21 02:26:03;;;;;;;49.95;39.63;;;-0.40;99.90;;;;;;2109484;28;20066;-71
2023/01/21 02:27:15;;;;;;;46.83;39.92;;;-0.30;99.90;;;;;;2093755;28;20045;-70
2023/01/21 02:28:19;;;;;;;48.97;40.25;;;-0.30;99.90;;;;;;2094049;28;20032;-69
2023/01/21 02:29:22;;;;;;;50.72;41.45;;;-0.30;99.90;;;;;;2107724;28;20037;-69
2023/01/21 02:30:39;;;;;;;52.30;43.25;;;-0.30;99.90;;;;;;2108433;28;20039;-70
2023/01/21 02:31:43;;;;;;;54.65;42.03;;;-0.30;99.90;;;;;;2109644;28;20423;-70
2023/01/21 02:33:14;;;;;;;51.00;42.13;;;-0.30;99.90;;;;;;2108870;28;20469;-70
2023/01/21 02:34:38;;;;;;;51.85;42.25;;;-0.30;99.90;;;;;;2108152;28;20035;-70
2023/01/21 02:35:42;;;;;;;52.80;43.50;;;-0.30;99.90;;;;;;2106497;28;20415;-69
2023/01/21 02:36:49;;;;;;;55.35;45.13;;;-0.30;99.90;;;;;;2108146;28;20558;-69
2023/01/21 02:38:22;;;;;;;54.85;44.03;;;-0.30;99.90;;;;;;2109692;28;20732;-70
2023/01/21 02:39:39;;;;;;;53.13;43.03;;;-0.30;99.90;;;;;;2107341;28;20043;-70
2023/01/21 02:40:57;;;;;;;52.92;43.88;;;-0.30;99.90;;;;;;2107565;27;20054;-70
2023/01/21 02:42:14;;;;;;;52.70;43.95;;;-0.30;99.90;;;;;;2108886;28;20646;-70
2023/01/21 02:43:36;;;;;;;51.90;42.50;;;-0.30;99.90;;;;;;2107035;28;20553;-70
2023/01/21 02:44:38;;;;;;;54.42;44.00;;;-0.30;99.90;;;;;;2112197;27;20039;-70
2023/01/21 02:46:12;;;;;;;53.30;44.03;;;-0.30;99.90;;;;;;2113543;27;20042;-70
2023/01/21 02:47:36;;;;;;;52.85;43.95;;;-0.30;99.90;;;;;;2105747;28;20036;-70
2023/01/21 02:48:44;;;;;;;54.20;45.95;;;-0.30;99.90;;;;;;2109575;28;20028;-70
2023/01/21 02:49:51;;;;;;;58.00;45.50;;;-0.40;99.90;;;;;;2108789;28;21342;-70
2023/01/21 02:50:53;;;;;;;53.92;45.72;;;-0.30;99.90;;;;;;2108710;28;20034;-70
2023/01/21 02:51:54;;;;;;;54.75;45.00;;;-0.30;99.90;;;;;;2109530;28;20080;-70
2023/01/21 02:52:56;;;;;;;54.88;44.88;;;-0.30;99.90;;;;;;2110011;28;20023;-70
2023/01/21 02:53:56;;;;;;;54.75;43.85;;;-0.30;99.90;;;;;;2107709;28;20551;-70
2023/01/21 02:54:59;;;;;;;57.97;46.15;;;-0.30;99.90;;;;;;2108355;28;20584;-70
2023/01/21 02:56:03;;;;;;;55.47;45.65;;;-0.30;99.90;;;;;;2109245;28;20120;-70
2023/01/21 02:57:10;;;;;;;52.53;43.80;;;-0.20;99.90;;;;;;2107822;28;20093;-70
2023/01/21 02:58:15;;;;;;;55.00;44.25;;;-0.30;99.90;;;;;;2108711;28;20023;-70
2023/01/21 02:59:16;;;;;;;59.63;44.20;;;-0.20;99.90;;;;;;2108341;28;20063;-70
2023/01/21 03:00:26;;;;;;;53.67;44.28;;;-0.20;99.90;;;;;;2109816;28;20023;-70
2023/01/21 03:01:58;;;;;;;55.95;45.88;;;-0.20;99.90;;;;;;2107901;28;20126;-69
2023/01/21 03:03:25;;;;;;;53.83;45.75;;;-0.30;99.90;;;;;;2108077;28;20042;-70
2023/01/21 03:04:45;;;;;;;54.35;44.03;;;-0.30;99.90;;;;;;2111249;28;20024;-70
2023/01/21 03:05:52;;;;;;;57.00;44.40;;;-0.30;99.90;;;;;;2108799;27;20030;-70
2023/01/21 03:07:11;;;;;;;52.83;43.88;;;-0.30;99.90;;;;;;2108426;28;20111;-70
2023/01/21 03:08:13;;;;;;;52.75;43.40;;;-0.30;99.90;;;;;;2105807;28;20722;-70
2023/01/21 03:09:21;;;;;;;51.97;43.28;;;-0.30;99.90;;;;;;2107565;28;20030;-70
2023/01/21 03:10:41;;;;;;;53.08;44.15;;;-0.30;99.90;;;;;;2107316;27;20032;-70
2023/01/21 03:11:47;;;;;;;55.15;43.15;;;-0.30;99.90;;;;;;2107424;28;20055;-70
2023/01/21 03:13:04;;;;;;;51.38;43.85;;;-0.30;99.90;;;;;;2108137;28;20051;-70
2023/01/21 03:17:16;;;;;;;52.85;42.95;;;-0.30;99.90;;;;;;2109431;28;20028;-70
2023/01/21 03:18:25;;;;;;;52.28;44.45;;;-0.30;99.90;;;;;;2107824;28;20020;-70
2023/01/21 03:19:35;;;;;;;50.25;42.92;;;-0.30;99.90;;;;;;2108350;28;20073;-70
2023/01/21 03:21:02;;;;;;;51.63;42.50;;;-0.30;99.90;;;;;;2111980;27;20542;-70
2023/01/21 03:22:08;;;;;;;49.50;41.83;;;-0.30;99.90;;;;;;2110833;27;20019;-70
2023/01/21 03:23:18;;;;;;;51.95;43.08;;;-0.30;99.90;;;;;;2108384;28;20050;-70
2023/01/21 03:24:19;;;;;;;56.03;43.95;;;-0.30;99.90;;;;;;2107116;28;20027;-70
2023/01/21 03:25:21;;;;;;;52.70;43.38;;;-0.30;99.90;;;;;;2109616;28;20019;-70
2023/01/21 03:26:31;;;;;;;53.03;42.80;;;-0.30;99.90;;;;;;2109027;28;20073;-70
2023/01/21 03:27:33;;;;;;;53.20;44.40;;;-0.30;99.90;;;;;;2109239;28;20020;-70
2023/01/21 03:28:38;;;;;;;54.30;44.63;;;-0.30;99.90;;;;;;2106844;28;20098;-70
2023/01/21 03:29:42;;;;;;;51.58;42.33;;;-0.30;99.90;;;;;;2105192;28;20023;-69
2023/01/21 03:30:46;;;;;;;53.72;43.65;;;-0.30;99.90;;;;;;2105709;28;20031;-70
2023/01/21 03:31:55;;;;;;;53.63;43.75;;;-0.30;99.90;;;;;;2108689;28;20030;-70
2023/01/21 03:32:57;;;;;;;57.80;42.92;;;-0.30;99.90;;;;;;2107637;28;20027;-70
2023/01/21 03:34:01;;;;;;;51.00;43.97;;;-0.30;99.90;;;;;;2109694;28;20030;-70
2023/01/21 03:35:04;;;;;;;56.80;45.22;;;-0.40;99.90;;;;;;2108735;28;20511;-70
2023/01/21 03:36:15;;;;;;;58.50;45.47;;;-0.30;99.90;;;;;;2105164;28;20646;-70
2023/01/21 03:37:27;;;;;;;58.55;45.63;;;-0.30;99.90;;;;;;2107977;28;20463;-70
2023/01/21 03:38:34;;;;;;;54.88;45.85;;;-0.30;99.90;;;;;;2107913;28;20063;-70
2023/01/21 03:40:18;;;;;;;59.03;45.58;;;-0.30;99.90;;;;;;2105869;28;20572;-69
2023/01/21 03:41:24;;;;;;;56.10;45.10;;;-0.30;99.90;;;;;;2097732;28;20044;-70
2023/01/21 03:42:25;;;;;;;55.95;46.13;;;-0.30;99.90;;;;;;2106861;28;20066;-70
2023/01/21 03:43:26;;;;;;;54.53;45.13;;;-0.30;99.90;;;;;;2109466;28;20039;-70
2023/01/21 03:44:27;;;;;;;53.42;42.72;;;-0.30;99.90;;;;;;2108691;28;20059;-70
2023/01/21 03:45:35;;;;;;;51.20;43.03;;;-0.30;99.90;;;;;;2109579;28;20035;-70
2023/01/21 03:47:04;;;;;;;54.25;44.45;;;-0.30;99.90;;;;;;2107085;28;20024;-69
2023/01/21 03:48:28;;;;;;;54.00;42.65;;;-0.40;99.90;;;;;;2099666;28;20040;-70
2023/01/21 03:49:54;;;;;;;53.40;42.80;;;-0.50;99.90;;;;;;2107811;28;20028;-70
2023/01/21 03:50:59;;;;;;;54.90;44.22;;;-0.40;99.90;;;;;;2106889;28;20028;-70
2023/01/21 03:52:02;;;;;;;54.15;42.80;;;-0.50;99.90;;;;;;2107743;28;20020;-70
2023/01/21 03:53:04;;;;;;;44.78;38.28;;;-0.50;99.90;;;;;;2106982;28;20032;-70
2023/01/21 03:54:05;;;;;;;45.15;37.40;;;-0.50;99.90;;;;;;2105043;28;20027;-69
2023/01/21 03:55:06;;;;;;;44.97;40.08;;;-0.50;99.90;;;;;;2108579;28;20118;-69
2023/01/21 03:56:07;;;;;;;42.00;36.47;;;-0.40;99.90;;;;;;2106777;28;20016;-69
2023/01/21 03:57:07;;;;;;;53.67;43.90;;;-0.40;99.90;;;;;;2108515;28;20038;-70
2023/01/21 03:58:08;;;;;;;46.95;39.83;;;-0.50;99.90;;;;;;2109658;28;20023;-69
2023/01/21 03:59:09;;;;;;;46.30;41.15;;;-0.50;99.90;;;;;;2108932;28;20039;-69
2023/01/21 04:00:11;;;;;;;46.92;41.28;;;-0.50;99.90;;;;;;2109665;28;20024;-70
2023/01/21 04:01:11;;;;;;;50.50;41.67;;;-0.50;99.90;;;;;;2107873;28;20027;-70
2023/01/21 04:02:12;;;;;;;43.33;37.40;;;-0.50;99.90;;;;;;2108004;28;20028;-70
2023/01/21 04:03:12;;;;;;;46.30;38.20;;;-0.50;99.90;;;;;;2108058;28;20027;-70
2023/01/21 04:04:13;;;;;;;39.95;34.05;;;-0.50;99.90;;;;;;2107267;28;20027;-70
2023/01/21 04:05:13;;;;;;;46.95;38.83;;;-0.50;99.90;;;;;;2107470;28;20032;-70
2023/01/21 04:06:16;;;;;;;50.33;42.35;;;-0.50;99.90;;;;;;2108526;28;20023;-69
2023/01/21 04:07:16;;;;;;;49.63;42.22;;;-0.50;99.90;;;;;;2108661;28;20046;-69
2023/01/21 04:08:17;;;;;;;45.72;37.83;;;-0.50;99.90;;;;;;2107653;28;20026;-69
2023/01/21 04:09:18;;;;;;;48.95;42.33;;;-0.60;99.90;;;;;;2106517;28;20027;-69
2023/01/21 04:10:18;;;;;;;53.55;42.58;;;-0.60;99.90;;;;;;2106368;28;20538;-69
2023/01/21 04:11:19;;;;;;;50.22;42.03;;;-0.60;99.90;;;;;;2109035;28;20015;-69
2023/01/21 04:12:19;;;;;;;49.63;40.50;;;-0.60;99.90;;;;;;2108205;28;20019;-69
2023/01/21 04:13:20;;;;;;;50.55;39.95;;;-0.60;99.90;;;;;;2108270;28;20076;-70
2023/01/21 04:14:20;;;;;;;44.10;37.55;;;-0.60;99.90;;;;;;2108502;28;20100;-70
2023/01/21 04:15:21;;;;;;;50.30;42.97;;;-0.60;99.90;;;;;;2107004;28;20031;-70
2023/01/21 04:16:21;;;;;;;47.65;39.65;;;-0.60;99.90;;;;;;2109663;28;20081;-70
2023/01/21 04:17:22;;;;;;;50.42;41.83;;;-0.60;99.90;;;;;;2110400;28;20035;-70
2023/01/21 04:18:22;;;;;;;45.22;39.22;;;-0.70;99.90;;;;;;2107311;28;20558;-70
2023/01/21 04:19:23;;;;;;;51.55;41.67;;;-0.70;99.90;;;;;;2106935;28;20024;-70
2023/01/21 04:20:23;;;;;;;46.83;40.50;;;-0.70;99.90;;;;;;2109192;28;20062;-69
2023/01/21 04:21:24;;;;;;;45.05;38.95;;;-0.70;99.90;;;;;;2109203;28;20032;-69
2023/01/21 04:22:24;;;;;;;52.72;42.58;;;-0.70;99.90;;;;;;2109575;28;20039;-69
2023/01/21 04:23:25;;;;;;;53.65;44.95;;;-0.70;99.90;;;;;;2107221;28;20047;-69
2023/01/21 04:24:26;;;;;;;48.90;42.20;;;-0.80;99.90;;;;;;2108490;28;20035;-69
2023/01/21 04:25:26;;;;;;;53.63;43.78;;;-0.70;99.90;;;;;;2106322;28;20599;-69
2023/01/21 04:26:27;;;;;;;45.00;38.92;;;-0.80;99.90;;;;;;2108093;28;20039;-69
2023/01/21 04:27:27;;;;;;;45.95;40.85;;;-0.70;99.90;;;;;;2106887;28;20031;-70
2023/01/21 04:28:28;;;;;;;47.42;38.75;;;-0.80;99.90;;;;;;2108074;28;20036;-69
2023/01/21 04:29:28;;;;;;;52.30;43.38;;;-0.80;99.90;;;;;;2106315;28;20032;-69
2023/01/21 04:30:29;;;;;;;49.42;42.13;;;-0.80;99.90;;;;;;2109466;28;20057;-70
2023/01/21 04:31:29;;;;;;;50.70;41.15;;;-0.80;99.90;;;;;;2109765;28;20032;-70
2023/01/21 04:32:30;;;;;;;48.28;39.85;;;-0.80;99.90;;;;;;2106859;28;20039;-70
2023/01/21 04:33:30;;;;;;;43.38;38.35;;;-0.80;99.90;;;;;;2108661;28;20035;-70
2023/01/21 04:34:31;;;;;;;38.80;34.17;;;-0.80;99.90;;;;;;2108136;28;20028;-70
2023/01/21 04:35:34;;;;;;;49.40;40.10;;;-0.90;99.90;;;;;;2106959;28;20030;-70
2023/01/21 04:36:34;;;;;;;51.10;43.17;;;-0.80;99.90;;;;;;2108663;28;20023;-70
2023/01/21 04:37:35;;;;;;;49.65;41.08;;;-0.80;99.90;;;;;;2106937;28;20024;-70
2023/01/21 04:38:35;;;;;;;50.78;42.80;;;-0.80;99.90;;;;;;2108248;28;20027;-70
2023/01/21 04:39:36;;;;;;;46.22;39.42;;;-0.90;99.90;;;;;;2108204;28;20034;-70
2023/01/21 04:40:36;;;;;;;54.13;44.40;;;-0.90;99.90;;;;;;2108466;28;20055;-70
2023/01/21 04:41:37;;;;;;;56.25;44.15;;;-0.90;99.90;;;;;;2109542;28;20639;-70
2023/01/21 04:42:37;;;;;;;51.67;43.67;;;-0.90;99.90;;;;;;2107015;28;20059;-70
2023/01/21 04:43:38;;;;;;;49.88;42.00;;;-0.90;99.90;;;;;;2109989;28;20093;-70
2023/01/21 04:44:38;;;;;;;51.80;42.42;;;-0.90;99.90;;;;;;2109437;28;20031;-70
2023/01/21 04:45:39;;;;;;;50.67;41.67;;;-0.90;99.90;;;;;;2109726;28;20019;-70
2023/01/21 04:46:39;;;;;;;52.42;41.90;;;-0.90;99.90;;;;;;2105397;28;20115;-69
2023/01/21 04:47:42;;;;;;;44.03;38.20;;;-1.00;99.90;;;;;;2107027;28;20471;-70
2023/01/21 04:48:42;;;;;;;45.83;37.78;;;-1.00;99.90;;;;;;2106312;28;20105;-70
2023/01/21 04:49:43;;;;;;;49.30;42.20;;;-1.00;99.90;;;;;;2106171;28;20105;-70
2023/01/21 04:50:45;;;;;;;49.80;41.10;;;-1.00;99.90;;;;;;2107354;28;20110;-70
2023/01/21 04:51:46;;;;;;;48.13;39.78;;;-1.00;99.90;;;;;;2106426;28;20024;-70
2023/01/21 04:52:46;;;;;;;44.95;38.50;;;-1.00;99.90;;;;;;2106449;28;20031;-69
2023/01/21 04:53:47;;;;;;;46.70;38.05;;;-1.00;99.90;;;;;;2107335;28;20023;-70
2023/01/21 04:54:47;;;;;;;49.90;42.67;;;-1.00;99.90;;;;;;2106713;28;20047;-70
2023/01/21 04:55:51;;;;;;;49.72;41.10;;;-1.00;99.90;;;;;;2109287;28;20379;-69
2023/01/21 04:56:51;;;;;;;50.20;40.67;;;-1.10;99.90;;;;;;2108026;28;20467;-69
2023/01/21 04:57:52;;;;;;;49.30;41.55;;;-1.00;99.90;;;;;;2107207;28;20092;-70
2023/01/21 04:58:52;;;;;;;50.08;42.70;;;-1.10;99.90;;;;;;2109258;28;20118;-69
2023/01/21 04:59:53;;;;;;;54.65;43.35;;;-1.10;99.90;;;;;;2108581;28;20022;-69
2023/01/21 05:00:54;;;;;;;46.65;39.67;;;-1.10;99.90;;;;;;2109799;28;20020;-69
2023/01/21 05:01:55;;;;;;;51.78;42.10;;;-1.10;99.90;;;;;;2108580;28;20063;-70
2023/01/21 05:02:55;;;;;;;49.20;41.75;;;-1.10;99.90;;;;;;2109485;28;20024;-69
2023/01/21 05:03:56;;;;;;;49.92;41.25;;;-1.10;99.90;;;;;;2110639;28;20115;-70
2023/01/21 05:04:56;;;;;;;45.83;37.78;;;-1.10;99.90;;;;;;2108894;28;20530;-70
2023/01/21 05:05:57;;;;;;;52.70;41.47;;;-1.10;99.90;;;;;;2108188;27;20662;-70
2023/01/21 05:06:58;;;;;;;49.75;42.65;;;-1.10;99.90;;;;;;2110420;28;20154;-70
2023/01/21 05:07:58;;;;;;;47.75;39.40;;;-1.10;99.90;;;;;;2109332;28;20020;-70
2023/01/21 05:08:59;;;;;;;41.50;36.80;;;-1.20;99.90;;;;;;2110131;28;20023;-70
2023/01/21 05:10:00;;;;;;;42.60;36.92;;;-1.10;99.90;;;;;;2108161;28;20043;-70
2023/01/21 05:11:00;;;;;;;46.95;40.75;;;-1.20;99.90;;;;;;2111491;28;20031;-70
2023/01/21 05:12:01;;;;;;;46.72;39.65;;;-1.20;99.90;;;;;;2108538;28;20099;-70
2023/01/21 05:13:01;;;;;;;48.03;38.35;;;-1.20;99.90;;;;;;2107928;28;20118;-70
2023/01/21 05:14:02;;;;;;;47.58;40.28;;;-1.20;99.90;;;;;;2109432;28;20020;-70
2023/01/21 05:15:03;;;;;;;53.28;41.85;;;-1.20;99.90;;;;;;2109273;28;20138;-70
2023/01/21 05:16:07;;;;;;;45.78;39.10;;;-1.20;99.90;;;;;;2109640;27;20020;-70
2023/01/21 05:17:08;;;;;;;42.88;37.53;;;-1.20;99.90;;;;;;2109175;28;20073;-70
2023/01/21 05:18:08;;;;;;;49.88;42.50;;;-1.20;99.90;;;;;;2110674;28;20099;-70
2023/01/21 05:19:09;;;;;;;48.65;40.40;;;-1.20;99.90;;;;;;2109439;28;20059;-70
2023/01/21 05:20:10;;;;;;;43.78;38.95;;;-1.20;99.90;;;;;;2108527;28;20024;-70
2023/01/21 05:21:11;;;;;;;43.25;38.22;;;-1.20;99.90;;;;;;2109985;28;20020;-70
2023/01/21 05:22:11;;;;;;;43.15;36.78;;;-1.20;99.90;;;;;;2106794;28;20367;-70
2023/01/21 05:23:12;;;;;;;46.13;39.65;;;-1.20;99.90;;;;;;2107579;28;20104;-70
2023/01/21 05:24:12;;;;;;;50.20;41.15;;;-1.20;99.90;;;;;;2110599;27;20110;-69
2023/01/21 05:25:14;;;;;;;49.83;39.78;;;-1.30;99.90;;;;;;2108051;28;20035;-70
2023/01/21 05:26:14;;;;;;;42.78;35.90;;;-1.30;99.90;;;;;;2109238;28;20643;-69
2023/01/21 05:27:15;;;;;;;43.78;37.42;;;-1.30;99.90;;;;;;2109880;28;20120;-70
2023/01/21 05:28:15;;;;;;;45.00;38.72;;;-1.30;99.90;;;;;;2109558;28;20028;-70
2023/01/21 05:29:16;;;;;;;47.80;39.20;;;-1.30;99.90;;;;;;2110417;28;20100;-70
2023/01/21 05:30:16;;;;;;;44.08;37.20;;;-1.30;99.90;;;;;;2108922;28;20019;-69